sensor_id;sensor_type;location;lat;lon;timestamp;temperature;humidity
6956;DHT22;50345;51.136;16.886;2023-12-20T00:00:21;7.30;99.90
6956;DHT22;50345;51.136;16.886;2023-12-20T00:02:47;7.30;99.90
6956;DHT22;50345;51.136;16.886;2023-12-20T00:05:14;7.30;99.90
6956;DHT22;50345;51.136;16.886;2023-12-20T00:07:39;7.30;99.90
6956;DHT22;50345;51.136;16.886;2023-12-20T00:10:05;7.30;99.90
6956;DHT22;50345;51.136;16.886;2023-12-20T00:12:31;7.30;99.90
6956;DHT22;50345;51.136;16.886;2023-12-20T00:14:57;7.30;99.90
6956;DHT22;50345;51.136;16.886;2023-12-20T00:17:23;7.30;99.90
6956;DHT22;50345;51.136;16.886;2023-12-20T00:19:48;7.30;99.90
6956;DHT22;50345;51.136;16.886;2023-12-20T00:22:14;7.20;99.90
6956;DHT22;50345;51.136;16.886;2023-12-20T00:24:39;7.30;99.90
6956;DHT22;50345;51.136;16.886;2023-12-20T00:27:05;7.30;99.90
6956;DHT22;50345;51.136;16.886;2023-12-20T00:29:30;7.30;99.90
6956;DHT22;50345;51.136;16.886;2023-12-20T00:31:56;7.30;99.90
6956;DHT22;50345;51.136;16.886;2023-12-20T00:34:21;7.20;99.90
6956;DHT22;50345;51.136;16.886;2023-12-20T00:36:47;7.20;99.90
6956;DHT22;50345;51.136;16.886;2023-12-20T00:39:12;7.30;99.90
6956;DHT22;50345;51.136;16.886;2023-12-20T00:41:38;7.30;99.90
6956;DHT22;50345;51.136;16.886;2023-12-20T00:44:04;7.20;99.90
6956;DHT22;50345;51.136;16.886;2023-12-20T00:46:29;7.30;99.90
6956;DHT22;50345;51.136;16.886;2023-12-20T00:48:55;7.30;99.90
6956;DHT22;50345;51.136;16.886;2023-12-20T00:51:20;7.30;99.90
6956;DHT22;50345;51.136;16.886;2023-12-20T00:53:50;7.30;99.90
6956;DHT22;50345;51.136;16.886;2023-12-20T00:56:15;7.30;99.90
6956;DHT22;50345;51.136;16.886;2023-12-20T00:58:41;7.30;99.90
6956;DHT22;50345;51.136;16.886;2023-12-20T01:01:06;7.30;99.90
6956;DHT22;50345;51.136;16.886;2023-12-20T01:03:32;7.20;99.90
6956;DHT22;50345;51.136;16.886;2023-12-20T01:05:58;7.20;99.90
6956;DHT22;50345;51.136;16.886;2023-12-20T01:08:23;7.30;99.90
6956;DHT22;50345;51.136;16.886;2023-12-20T01:10:49;7.30;99.90
6956;DHT22;50345;51.136;16.886;2023-12-20T01:13:14;7.30;99.90
6956;DHT22;50345;51.136;16.886;2023-12-20T01:15:40;7.30;99.90
6956;DHT22;50345;51.136;16.886;2023-12-20T01:18:05;7.30;99.90
6956;DHT22;50345;51.136;16.886;2023-12-20T01:20:31;7.40;99.90
6956;DHT22;50345;51.136;16.886;2023-12-20T01:22:57;7.40;99.90
6956;DHT22;50345;51.136;16.886;2023-12-20T01:25:22;7.40;99.90
6956;DHT22;50345;51.136;16.886;2023-12-20T01:27:48;7.40;99.90
6956;DHT22;50345;51.136;16.886;2023-12-20T01:30:14;7.40;99.90
6956;DHT22;50345;51.136;16.886;2023-12-20T01:32:40;7.40;99.90
6956;DHT22;50345;51.136;16.886;2023-12-20T01:35:05;7.40;99.90
6956;DHT22;50345;51.136;16.886;2023-12-20T01:37:31;7.30;99.90
6956;DHT22;50345;51.136;16.886;2023-12-20T01:39:57;7.30;99.90
6956;DHT22;50345;51.136;16.886;2023-12-20T01:42:24;7.30;99.90
6956;DHT22;50345;51.136;16.886;2023-12-20T01:44:49;7.30;99.90
6956;DHT22;50345;51.136;16.886;2023-12-20T01:47:15;7.30;99.90
6956;DHT22;50345;51.136;16.886;2023-12-20T01:49:40;7.30;99.90
6956;DHT22;50345;51.136;16.886;2023-12-20T01:52:07;7.30;99.90
6956;DHT22;50345;51.136;16.886;2023-12-20T01:54:34;7.30;99.90
6956;DHT22;50345;51.136;16.886;2023-12-20T01:57:01;7.30;99.90
6956;DHT22;50345;51.136;16.886;2023-12-20T01:59:26;7.30;99.90
6956;DHT22;50345;51.136;16.886;2023-12-20T02:01:53;7.30;99.90
6956;DHT22;50345;51.136;16.886;2023-12-20T02:04:19;7.30;99.90
6956;DHT22;50345;51.136;16.886;2023-12-20T02:06:46;7.30;99.90
6956;DHT22;50345;51.136;16.886;2023-12-20T02:09:12;7.30;99.90
6956;DHT22;50345;51.136;16.886;2023-12-20T02:11:38;7.20;99.90
6956;DHT22;50345;51.136;16.886;2023-12-20T02:14:04;7.20;99.90
6956;DHT22;50345;51.136;16.886;2023-12-20T02:16:30;7.20;99.90
6956;DHT22;50345;51.136;16.886;2023-12-20T02:18:55;7.20;99.90
6956;DHT22;50345;51.136;16.886;2023-12-20T02:21:33;7.20;99.90
6956;DHT22;50345;51.136;16.886;2023-12-20T02:24:02;7.20;99.90
6956;DHT22;50345;51.136;16.886;2023-12-20T02:26:28;7.20;99.90
6956;DHT22;50345;51.136;16.886;2023-12-20T02:28:54;7.20;99.90
6956;DHT22;50345;51.136;16.886;2023-12-20T02:31:23;7.20;99.90
6956;DHT22;50345;51.136;16.886;2023-12-20T02:33:49;7.10;99.90
6956;DHT22;50345;51.136;16.886;2023-12-20T02:36:14;7.10;99.90
6956;DHT22;50345;51.136;16.886;2023-12-20T02:38:40;7.10;99.90
6956;DHT22;50345;51.136;16.886;2023-12-20T02:41:05;7.10;99.90
6956;DHT22;50345;51.136;16.886;2023-12-20T02:43:31;7.10;99.90
6956;DHT22;50345;51.136;16.886;2023-12-20T02:45:56;7.10;99.90
6956;DHT22;50345;51.136;16.886;2023-12-20T02:48:23;7.10;99.90
6956;DHT22;50345;51.136;16.886;2023-12-20T02:50:48;7.10;99.90
6956;DHT22;50345;51.136;16.886;2023-12-20T02:53:14;7.10;99.90
6956;DHT22;50345;51.136;16.886;2023-12-20T02:55:40;7.00;99.90
6956;DHT22;50345;51.136;16.886;2023-12-20T02:58:06;7.00;99.90
6956;DHT22;50345;51.136;16.886;2023-12-20T03:00:31;7.00;99.90
6956;DHT22;50345;51.136;16.886;2023-12-20T03:02:57;7.00;99.90
6956;DHT22;50345;51.136;16.886;2023-12-20T03:05:24;7.00;99.90
6956;DHT22;50345;51.136;16.886;2023-12-20T03:07:50;7.00;99.90
6956;DHT22;50345;51.136;16.886;2023-12-20T03:10:16;7.00;99.90
6956;DHT22;50345;51.136;16.886;2023-12-20T03:12:41;7.00;99.90
6956;DHT22;50345;51.136;16.886;2023-12-20T03:15:07;7.00;99.90
6956;DHT22;50345;51.136;16.886;2023-12-20T03:17:33;7.00;99.90
6956;DHT22;50345;51.136;16.886;2023-12-20T03:19:58;7.00;99.90
6956;DHT22;50345;51.136;16.886;2023-12-20T03:22:24;7.00;99.90
6956;DHT22;50345;51.136;16.886;2023-12-20T03:24:49;6.90;99.90
6956;DHT22;50345;51.136;16.886;2023-12-20T03:27:15;6.90;99.90
6956;DHT22;50345;51.136;16.886;2023-12-20T03:29:40;6.90;99.90
6956;DHT22;50345;51.136;16.886;2023-12-20T03:32:06;6.90;99.90
6956;DHT22;50345;51.136;16.886;2023-12-20T03:34:31;6.80;99.90
6956;DHT22;50345;51.136;16.886;2023-12-20T03:36:57;6.80;99.90
6956;DHT22;50345;51.136;16.886;2023-12-20T03:39:22;6.80;99.90
6956;DHT22;50345;51.136;16.886;2023-12-20T03:41:48;6.80;99.90
6956;DHT22;50345;51.136;16.886;2023-12-20T03:44:13;6.70;99.90
6956;DHT22;50345;51.136;16.886;2023-12-20T03:46:39;6.70;99.90
6956;DHT22;50345;51.136;16.886;2023-12-20T03:49:05;6.70;99.90
6956;DHT22;50345;51.136;16.886;2023-12-20T03:51:31;6.70;99.90
6956;DHT22;50345;51.136;16.886;2023-12-20T03:53:56;6.70;99.90
6956;DHT22;50345;51.136;16.886;2023-12-20T03:56:22;6.60;99.90
6956;DHT22;50345;51.136;16.886;2023-12-20T03:58:47;6.60;99.90
6956;DHT22;50345;51.136;16.886;2023-12-20T04:01:13;6.60;99.90
6956;DHT22;50345;51.136;16.886;2023-12-20T04:03:39;6.60;99.90
6956;DHT22;50345;51.136;16.886;2023-12-20T04:06:05;6.60;99.90
6956;DHT22;50345;51.136;16.886;2023-12-20T04:08:31;6.60;99.90
6956;DHT22;50345;51.136;16.886;2023-12-20T04:10:57;6.60;99.90
6956;DHT22;50345;51.136;16.886;2023-12-20T04:13:22;6.60;99.90
6956;DHT22;50345;51.136;16.886;2023-12-20T04:15:48;6.60;99.90
6956;DHT22;50345;51.136;16.886;2023-12-20T04:18:15;6.60;99.90
6956;DHT22;50345;51.136;16.886;2023-12-20T04:20:41;6.60;99.90
6956;DHT22;50345;51.136;16.886;2023-12-20T04:23:06;6.60;99.90
6956;DHT22;50345;51.136;16.886;2023-12-20T04:25:32;6.50;99.90
6956;DHT22;50345;51.136;16.886;2023-12-20T04:27:57;6.50;99.90
6956;DHT22;50345;51.136;16.886;2023-12-20T04:30:23;6.50;99.90
6956;DHT22;50345;51.136;16.886;2023-12-20T04:32:48;6.50;99.90
6956;DHT22;50345;51.136;16.886;2023-12-20T04:35:14;6.50;99.90
6956;DHT22;50345;51.136;16.886;2023-12-20T04:37:39;6.50;99.90
6956;DHT22;50345;51.136;16.886;2023-12-20T04:40:05;6.50;99.90
6956;DHT22;50345;51.136;16.886;2023-12-20T04:42:31;6.50;99.90
6956;DHT22;50345;51.136;16.886;2023-12-20T04:44:57;6.40;99.90
6956;DHT22;50345;51.136;16.886;2023-12-20T04:47:22;6.40;99.90
6956;DHT22;50345;51.136;16.886;2023-12-20T04:49:48;6.40;99.90
6956;DHT22;50345;51.136;16.886;2023-12-20T04:52:14;6.40;99.90
6956;DHT22;50345;51.136;16.886;2023-12-20T04:54:40;6.40;99.90
6956;DHT22;50345;51.136;16.886;2023-12-20T04:57:05;6.30;99.90
6956;DHT22;50345;51.136;16.886;2023-12-20T04:59:31;6.30;99.90
6956;DHT22;50345;51.136;16.886;2023-12-20T05:01:56;6.30;99.90
6956;DHT22;50345;51.136;16.886;2023-12-20T05:04:23;6.30;99.90
6956;DHT22;50345;51.136;16.886;2023-12-20T05:06:48;6.30;99.90
6956;DHT22;50345;51.136;16.886;2023-12-20T05:09:15;6.30;99.90
6956;DHT22;50345;51.136;16.886;2023-12-20T05:11:41;6.30;99.90
6956;DHT22;50345;51.136;16.886;2023-12-20T05:14:06;6.30;99.90
6956;DHT22;50345;51.136;16.886;2023-12-20T05:16:32;6.20;99.90
6956;DHT22;50345;51.136;16.886;2023-12-20T05:18:58;6.20;99.90
6956;DHT22;50345;51.136;16.886;2023-12-20T05:21:26;6.20;99.90
6956;DHT22;50345;51.136;16.886;2023-12-20T05:23:51;6.20;99.90
6956;DHT22;50345;51.136;16.886;2023-12-20T05:26:17;6.20;99.90
6956;DHT22;50345;51.136;16.886;2023-12-20T05:28:42;6.20;99.90
6956;DHT22;50345;51.136;16.886;2023-12-20T05:31:08;6.20;99.90
6956;DHT22;50345;51.136;16.886;2023-12-20T05:33:34;6.20;99.90
6956;DHT22;50345;51.136;16.886;2023-12-20T05:36:00;6.20;99.90
6956;DHT22;50345;51.136;16.886;2023-12-20T05:38:25;6.20;99.90
6956;DHT22;50345;51.136;16.886;2023-12-20T05:40:51;6.20;99.90
6956;DHT22;50345;51.136;16.886;2023-12-20T05:43:16;6.20;99.90
6956;DHT22;50345;51.136;16.886;2023-12-20T05:45:42;6.20;99.90
6956;DHT22;50345;51.136;16.886;2023-12-20T05:48:08;6.20;99.90
6956;DHT22;50345;51.136;16.886;2023-12-20T05:50:33;6.20;99.90
6956;DHT22;50345;51.136;16.886;2023-12-20T05:53:00;6.20;99.90
6956;DHT22;50345;51.136;16.886;2023-12-20T05:55:26;6.30;99.90
6956;DHT22;50345;51.136;16.886;2023-12-20T05:57:51;6.30;99.90
6956;DHT22;50345;51.136;16.886;2023-12-20T06:00:17;6.20;99.90
6956;DHT22;50345;51.136;16.886;2023-12-20T06:02:43;6.20;99.90
6956;DHT22;50345;51.136;16.886;2023-12-20T06:05:08;6.20;99.90
6956;DHT22;50345;51.136;16.886;2023-12-20T06:07:34;6.20;99.90
6956;DHT22;50345;51.136;16.886;2023-12-20T06:09:59;6.20;99.90
6956;DHT22;50345;51.136;16.886;2023-12-20T06:12:25;6.20;99.90
6956;DHT22;50345;51.136;16.886;2023-12-20T06:14:52;6.20;99.90
6956;DHT22;50345;51.136;16.886;2023-12-20T06:17:18;6.20;99.90
6956;DHT22;50345;51.136;16.886;2023-12-20T06:19:44;6.10;99.90
6956;DHT22;50345;51.136;16.886;2023-12-20T06:22:10;6.10;99.90
6956;DHT22;50345;51.136;16.886;2023-12-20T06:24:36;6.10;99.90
6956;DHT22;50345;51.136;16.886;2023-12-20T06:27:02;6.10;99.90
6956;DHT22;50345;51.136;16.886;2023-12-20T06:29:28;6.10;99.90
6956;DHT22;50345;51.136;16.886;2023-12-20T06:31:53;6.10;99.90
6956;DHT22;50345;51.136;16.886;2023-12-20T06:34:19;6.10;99.90
6956;DHT22;50345;51.136;16.886;2023-12-20T06:36:44;6.00;99.90
6956;DHT22;50345;51.136;16.886;2023-12-20T06:39:10;6.00;99.90
6956;DHT22;50345;51.136;16.886;2023-12-20T06:41:38;6.00;99.90
6956;DHT22;50345;51.136;16.886;2023-12-20T06:44:03;6.00;99.90
6956;DHT22;50345;51.136;16.886;2023-12-20T06:46:29;6.00;99.90
6956;DHT22;50345;51.136;16.886;2023-12-20T06:48:55;6.00;99.90
6956;DHT22;50345;51.136;16.886;2023-12-20T06:51:20;6.00;99.90
6956;DHT22;50345;51.136;16.886;2023-12-20T06:53:46;6.00;99.90
6956;DHT22;50345;51.136;16.886;2023-12-20T06:56:12;6.00;99.90
6956;DHT22;50345;51.136;16.886;2023-12-20T06:58:38;5.90;99.90
6956;DHT22;50345;51.136;16.886;2023-12-20T07:01:03;5.90;99.90
6956;DHT22;50345;51.136;16.886;2023-12-20T07:03:30;5.90;99.90
6956;DHT22;50345;51.136;16.886;2023-12-20T07:05:55;5.90;99.90
6956;DHT22;50345;51.136;16.886;2023-12-20T07:08:21;5.90;99.90
6956;DHT22;50345;51.136;16.886;2023-12-20T07:10:46;5.90;99.90
6956;DHT22;50345;51.136;16.886;2023-12-20T07:13:12;5.90;99.90
6956;DHT22;50345;51.136;16.886;2023-12-20T07:15:38;5.90;99.90
6956;DHT22;50345;51.136;16.886;2023-12-20T07:18:03;5.90;99.90
6956;DHT22;50345;51.136;16.886;2023-12-20T07:20:30;5.90;99.90
6956;DHT22;50345;51.136;16.886;2023-12-20T07:22:55;5.90;99.90
6956;DHT22;50345;51.136;16.886;2023-12-20T07:25:21;5.90;99.90
6956;DHT22;50345;51.136;16.886;2023-12-20T07:27:46;5.90;99.90
6956;DHT22;50345;51.136;16.886;2023-12-20T07:30:12;5.90;99.90
6956;DHT22;50345;51.136;16.886;2023-12-20T07:32:38;5.90;99.90
6956;DHT22;50345;51.136;16.886;2023-12-20T07:35:03;5.90;99.90
6956;DHT22;50345;51.136;16.886;2023-12-20T07:37:30;5.90;99.90
6956;DHT22;50345;51.136;16.886;2023-12-20T07:39:56;5.90;99.90
6956;DHT22;50345;51.136;16.886;2023-12-20T07:42:21;5.90;99.90
6956;DHT22;50345;51.136;16.886;2023-12-20T07:44:47;5.90;99.90
6956;DHT22;50345;51.136;16.886;2023-12-20T07:47:13;5.90;99.90
6956;DHT22;50345;51.136;16.886;2023-12-20T07:49:42;5.90;99.90
6956;DHT22;50345;51.136;16.886;2023-12-20T07:52:08;5.90;99.90
6956;DHT22;50345;51.136;16.886;2023-12-20T07:54:33;5.90;99.90
6956;DHT22;50345;51.136;16.886;2023-12-20T07:56:59;5.90;99.90
6956;DHT22;50345;51.136;16.886;2023-12-20T07:59:24;5.90;99.90
6956;DHT22;50345;51.136;16.886;2023-12-20T08:01:50;5.90;99.90
6956;DHT22;50345;51.136;16.886;2023-12-20T08:04:16;5.90;99.90
6956;DHT22;50345;51.136;16.886;2023-12-20T08:06:41;5.90;99.90
6956;DHT22;50345;51.136;16.886;2023-12-20T08:09:07;5.90;99.90
6956;DHT22;50345;51.136;16.886;2023-12-20T08:11:32;5.90;99.90
6956;DHT22;50345;51.136;16.886;2023-12-20T08:13:58;5.90;99.90
6956;DHT22;50345;51.136;16.886;2023-12-20T08:16:23;5.90;99.90
6956;DHT22;50345;51.136;16.886;2023-12-20T08:18:50;5.80;99.90
6956;DHT22;50345;51.136;16.886;2023-12-20T08:21:16;5.90;99.90
6956;DHT22;50345;51.136;16.886;2023-12-20T08:23:41;5.90;99.90
6956;DHT22;50345;51.136;16.886;2023-12-20T08:26:08;5.90;99.90
6956;DHT22;50345;51.136;16.886;2023-12-20T08:28:33;5.90;99.90
6956;DHT22;50345;51.136;16.886;2023-12-20T08:31:00;6.00;99.90
6956;DHT22;50345;51.136;16.886;2023-12-20T08:33:26;6.00;99.90
6956;DHT22;50345;51.136;16.886;2023-12-20T08:35:51;6.00;99.90
6956;DHT22;50345;51.136;16.886;2023-12-20T08:38:17;6.00;99.90
6956;DHT22;50345;51.136;16.886;2023-12-20T08:40:43;6.00;99.90
6956;DHT22;50345;51.136;16.886;2023-12-20T08:43:09;6.00;99.90
6956;DHT22;50345;51.136;16.886;2023-12-20T08:45:34;6.00;99.90
6956;DHT22;50345;51.136;16.886;2023-12-20T08:48:00;6.00;99.90
6956;DHT22;50345;51.136;16.886;2023-12-20T08:50:26;6.00;99.90
6956;DHT22;50345;51.136;16.886;2023-12-20T08:52:51;6.00;99.90
6956;DHT22;50345;51.136;16.886;2023-12-20T08:55:18;6.00;99.90
6956;DHT22;50345;51.136;16.886;2023-12-20T08:57:44;6.00;99.90
6956;DHT22;50345;51.136;16.886;2023-12-20T09:00:10;6.10;99.90
6956;DHT22;50345;51.136;16.886;2023-12-20T09:02:36;6.10;99.90
6956;DHT22;50345;51.136;16.886;2023-12-20T09:05:03;6.10;99.90
6956;DHT22;50345;51.136;16.886;2023-12-20T09:07:28;6.10;99.90
6956;DHT22;50345;51.136;16.886;2023-12-20T09:09:57;6.10;99.90
6956;DHT22;50345;51.136;16.886;2023-12-20T09:12:23;6.10;99.90
6956;DHT22;50345;51.136;16.886;2023-12-20T09:14:49;6.10;99.90
6956;DHT22;50345;51.136;16.886;2023-12-20T09:17:16;6.10;99.90
6956;DHT22;50345;51.136;16.886;2023-12-20T09:19:43;6.20;99.90
6956;DHT22;50345;51.136;16.886;2023-12-20T09:22:11;6.20;99.90
6956;DHT22;50345;51.136;16.886;2023-12-20T09:24:38;6.20;99.90
6956;DHT22;50345;51.136;16.886;2023-12-20T09:27:04;6.30;99.90
6956;DHT22;50345;51.136;16.886;2023-12-20T09:29:31;6.30;99.90
6956;DHT22;50345;51.136;16.886;2023-12-20T09:31:57;6.30;99.90
6956;DHT22;50345;51.136;16.886;2023-12-20T09:34:23;6.30;99.90
6956;DHT22;50345;51.136;16.886;2023-12-20T09:36:49;6.30;99.90
6956;DHT22;50345;51.136;16.886;2023-12-20T09:39:16;6.30;99.90
6956;DHT22;50345;51.136;16.886;2023-12-20T09:41:45;6.40;99.90
6956;DHT22;50345;51.136;16.886;2023-12-20T09:44:16;6.40;99.90
6956;DHT22;50345;51.136;16.886;2023-12-20T09:46:45;6.40;99.90
6956;DHT22;50345;51.136;16.886;2023-12-20T09:49:15;6.50;99.90
6956;DHT22;50345;51.136;16.886;2023-12-20T09:51:43;6.50;99.90
6956;DHT22;50345;51.136;16.886;2023-12-20T09:54:09;6.60;99.90
6956;DHT22;50345;51.136;16.886;2023-12-20T09:56:35;6.50;99.90
6956;DHT22;50345;51.136;16.886;2023-12-20T09:59:02;6.50;99.90
6956;DHT22;50345;51.136;16.886;2023-12-20T10:01:28;6.50;99.90
6956;DHT22;50345;51.136;16.886;2023-12-20T10:03:54;6.50;99.90
6956;DHT22;50345;51.136;16.886;2023-12-20T10:06:21;6.50;99.90
6956;DHT22;50345;51.136;16.886;2023-12-20T10:08:46;6.50;99.90
6956;DHT22;50345;51.136;16.886;2023-12-20T10:11:12;6.50;99.90
6956;DHT22;50345;51.136;16.886;2023-12-20T10:13:42;6.60;99.90
6956;DHT22;50345;51.136;16.886;2023-12-20T10:16:08;6.60;99.90
6956;DHT22;50345;51.136;16.886;2023-12-20T10:18:34;6.70;99.90
6956;DHT22;50345;51.136;16.886;2023-12-20T10:21:00;6.70;99.90
6956;DHT22;50345;51.136;16.886;2023-12-20T10:23:26;6.80;99.90
6956;DHT22;50345;51.136;16.886;2023-12-20T10:25:59;7.30;99.90
6956;DHT22;50345;51.136;16.886;2023-12-20T10:28:25;8.10;99.90
6956;DHT22;50345;51.136;16.886;2023-12-20T10:30:53;9.00;99.90
6956;DHT22;50345;51.136;16.886;2023-12-20T10:33:25;9.70;99.90
6956;DHT22;50345;51.136;16.886;2023-12-20T10:35:52;10.10;99.90
6956;DHT22;50345;51.136;16.886;2023-12-20T10:38:18;9.90;99.90
6956;DHT22;50345;51.136;16.886;2023-12-20T10:40:45;9.70;99.90
6956;DHT22;50345;51.136;16.886;2023-12-20T10:43:11;9.50;99.90
6956;DHT22;50345;51.136;16.886;2023-12-20T10:45:37;9.50;99.90
6956;DHT22;50345;51.136;16.886;2023-12-20T10:48:03;9.90;99.90
6956;DHT22;50345;51.136;16.886;2023-12-20T10:50:30;10.40;99.90
6956;DHT22;50345;51.136;16.886;2023-12-20T10:52:57;11.10;99.90
6956;DHT22;50345;51.136;16.886;2023-12-20T10:55:25;11.80;99.90
6956;DHT22;50345;51.136;16.886;2023-12-20T10:57:52;12.40;99.90
6956;DHT22;50345;51.136;16.886;2023-12-20T11:00:19;12.80;99.90
6956;DHT22;50345;51.136;16.886;2023-12-20T11:02:49;12.60;99.90
6956;DHT22;50345;51.136;16.886;2023-12-20T11:05:43;12.40;99.90
6956;DHT22;50345;51.136;16.886;2023-12-20T11:13:37;12.20;99.90
6956;DHT22;50345;51.136;16.886;2023-12-20T11:16:06;12.60;99.90
6956;DHT22;50345;51.136;16.886;2023-12-20T11:18:33;12.70;99.90
6956;DHT22;50345;51.136;16.886;2023-12-20T11:21:03;12.60;99.90
6956;DHT22;50345;51.136;16.886;2023-12-20T11:23:30;12.30;99.90
6956;DHT22;50345;51.136;16.886;2023-12-20T11:25:58;12.00;99.90
6956;DHT22;50345;51.136;16.886;2023-12-20T11:28:25;11.70;99.90
6956;DHT22;50345;51.136;16.886;2023-12-20T11:30:51;11.20;99.90
6956;DHT22;50345;51.136;16.886;2023-12-20T11:33:23;10.70;99.90
6956;DHT22;50345;51.136;16.886;2023-12-20T11:35:49;10.20;99.90
6956;DHT22;50345;51.136;16.886;2023-12-20T11:38:15;9.90;99.90
6956;DHT22;50345;51.136;16.886;2023-12-20T11:40:44;9.60;99.90
6956;DHT22;50345;51.136;16.886;2023-12-20T11:43:09;9.50;99.90
6956;DHT22;50345;51.136;16.886;2023-12-20T11:45:35;9.40;99.90
6956;DHT22;50345;51.136;16.886;2023-12-20T11:48:04;9.30;99.90
6956;DHT22;50345;51.136;16.886;2023-12-20T11:50:31;9.20;99.90
6956;DHT22;50345;51.136;16.886;2023-12-20T11:52:57;9.10;99.90
6956;DHT22;50345;51.136;16.886;2023-12-20T11:55:23;9.00;99.90
6956;DHT22;50345;51.136;16.886;2023-12-20T11:57:50;9.10;99.90
6956;DHT22;50345;51.136;16.886;2023-12-20T12:00:16;9.20;99.90
6956;DHT22;50345;51.136;16.886;2023-12-20T12:02:43;9.30;99.90
6956;DHT22;50345;51.136;16.886;2023-12-20T12:05:08;9.20;99.90
6956;DHT22;50345;51.136;16.886;2023-12-20T12:07:35;9.10;99.90
6956;DHT22;50345;51.136;16.886;2023-12-20T12:10:01;9.00;99.90
6956;DHT22;50345;51.136;16.886;2023-12-20T12:12:26;8.90;99.90
6956;DHT22;50345;51.136;16.886;2023-12-20T12:14:53;8.80;99.90
6956;DHT22;50345;51.136;16.886;2023-12-20T12:17:19;8.60;99.90
6956;DHT22;50345;51.136;16.886;2023-12-20T12:19:45;8.50;99.90
6956;DHT22;50345;51.136;16.886;2023-12-20T12:22:15;8.40;99.90
6956;DHT22;50345;51.136;16.886;2023-12-20T12:24:46;8.30;99.90
6956;DHT22;50345;51.136;16.886;2023-12-20T12:27:13;8.20;99.90
6956;DHT22;50345;51.136;16.886;2023-12-20T12:29:39;8.20;99.90
6956;DHT22;50345;51.136;16.886;2023-12-20T12:32:08;8.10;99.90
6956;DHT22;50345;51.136;16.886;2023-12-20T12:34:35;8.10;99.90
6956;DHT22;50345;51.136;16.886;2023-12-20T12:37:01;8.00;99.90
6956;DHT22;50345;51.136;16.886;2023-12-20T12:39:27;8.00;99.90
6956;DHT22;50345;51.136;16.886;2023-12-20T12:41:55;7.90;99.90
6956;DHT22;50345;51.136;16.886;2023-12-20T12:44:21;7.90;99.90
6956;DHT22;50345;51.136;16.886;2023-12-20T12:46:49;7.90;99.90
6956;DHT22;50345;51.136;16.886;2023-12-20T12:49:22;7.80;99.90
6956;DHT22;50345;51.136;16.886;2023-12-20T12:51:48;7.80;99.90
6956;DHT22;50345;51.136;16.886;2023-12-20T12:54:13;7.70;99.90
6956;DHT22;50345;51.136;16.886;2023-12-20T12:56:41;7.70;99.90
6956;DHT22;50345;51.136;16.886;2023-12-20T12:59:07;7.70;99.90
6956;DHT22;50345;51.136;16.886;2023-12-20T13:01:33;7.80;99.90
6956;DHT22;50345;51.136;16.886;2023-12-20T13:03:59;7.80;99.90
6956;DHT22;50345;51.136;16.886;2023-12-20T13:06:26;7.90;99.90
6956;DHT22;50345;51.136;16.886;2023-12-20T13:08:52;7.90;99.90
6956;DHT22;50345;51.136;16.886;2023-12-20T13:11:18;8.00;99.90
6956;DHT22;50345;51.136;16.886;2023-12-20T13:13:43;8.10;99.90
6956;DHT22;50345;51.136;16.886;2023-12-20T13:16:09;8.10;99.90
6956;DHT22;50345;51.136;16.886;2023-12-20T13:18:34;8.20;99.90
6956;DHT22;50345;51.136;16.886;2023-12-20T13:21:00;8.20;99.90
6956;DHT22;50345;51.136;16.886;2023-12-20T13:23:25;8.10;99.90
6956;DHT22;50345;51.136;16.886;2023-12-20T13:25:51;8.10;99.90
6956;DHT22;50345;51.136;16.886;2023-12-20T13:28:16;8.10;99.90
6956;DHT22;50345;51.136;16.886;2023-12-20T13:30:42;8.10;99.90
6956;DHT22;50345;51.136;16.886;2023-12-20T13:33:08;8.10;99.90
6956;DHT22;50345;51.136;16.886;2023-12-20T13:35:35;8.10;99.90
6956;DHT22;50345;51.136;16.886;2023-12-20T13:38:01;8.10;99.90
6956;DHT22;50345;51.136;16.886;2023-12-20T13:40:26;8.00;99.90
6956;DHT22;50345;51.136;16.886;2023-12-20T13:42:52;8.00;99.90
6956;DHT22;50345;51.136;16.886;2023-12-20T13:45:18;8.00;99.90
6956;DHT22;50345;51.136;16.886;2023-12-20T13:47:43;7.90;99.90
6956;DHT22;50345;51.136;16.886;2023-12-20T13:50:09;7.90;99.90
6956;DHT22;50345;51.136;16.886;2023-12-20T13:52:35;7.80;99.90
6956;DHT22;50345;51.136;16.886;2023-12-20T13:55:01;7.70;99.90
6956;DHT22;50345;51.136;16.886;2023-12-20T13:57:27;7.70;99.90
6956;DHT22;50345;51.136;16.886;2023-12-20T13:59:54;7.70;99.90
6956;DHT22;50345;51.136;16.886;2023-12-20T14:02:19;7.70;99.90
6956;DHT22;50345;51.136;16.886;2023-12-20T14:04:45;7.60;99.90
6956;DHT22;50345;51.136;16.886;2023-12-20T14:07:11;7.60;99.90
6956;DHT22;50345;51.136;16.886;2023-12-20T14:09:36;7.60;99.90
6956;DHT22;50345;51.136;16.886;2023-12-20T14:12:02;7.60;99.90
6956;DHT22;50345;51.136;16.886;2023-12-20T14:14:27;7.60;99.90
6956;DHT22;50345;51.136;16.886;2023-12-20T14:16:53;7.60;99.90
6956;DHT22;50345;51.136;16.886;2023-12-20T14:19:19;7.60;99.90
6956;DHT22;50345;51.136;16.886;2023-12-20T14:21:45;7.50;99.90
6956;DHT22;50345;51.136;16.886;2023-12-20T14:24:13;7.50;99.90
6956;DHT22;50345;51.136;16.886;2023-12-20T14:26:40;7.60;99.90
6956;DHT22;50345;51.136;16.886;2023-12-20T14:29:06;7.50;99.90
6956;DHT22;50345;51.136;16.886;2023-12-20T14:31:33;7.60;99.90
6956;DHT22;50345;51.136;16.886;2023-12-20T14:33:58;7.50;99.90
6956;DHT22;50345;51.136;16.886;2023-12-20T14:36:24;7.50;99.90
6956;DHT22;50345;51.136;16.886;2023-12-20T14:38:50;7.50;99.90
6956;DHT22;50345;51.136;16.886;2023-12-20T14:41:16;7.50;99.90
6956;DHT22;50345;51.136;16.886;2023-12-20T14:43:43;7.50;99.90
6956;DHT22;50345;51.136;16.886;2023-12-20T14:46:08;7.50;99.90
6956;DHT22;50345;51.136;16.886;2023-12-20T14:48:34;7.50;99.90
6956;DHT22;50345;51.136;16.886;2023-12-20T14:51:00;7.50;99.90
6956;DHT22;50345;51.136;16.886;2023-12-20T14:53:26;7.50;99.90
6956;DHT22;50345;51.136;16.886;2023-12-20T14:55:51;7.50;99.90
6956;DHT22;50345;51.136;16.886;2023-12-20T14:58:17;7.40;99.90
6956;DHT22;50345;51.136;16.886;2023-12-20T15:00:43;7.40;99.90
6956;DHT22;50345;51.136;16.886;2023-12-20T15:03:09;7.40;99.90
6956;DHT22;50345;51.136;16.886;2023-12-20T15:05:35;7.40;99.90
6956;DHT22;50345;51.136;16.886;2023-12-20T15:08:01;7.40;99.90
6956;DHT22;50345;51.136;16.886;2023-12-20T15:10:26;7.30;99.90
6956;DHT22;50345;51.136;16.886;2023-12-20T15:12:52;7.40;99.90
6956;DHT22;50345;51.136;16.886;2023-12-20T15:15:17;7.30;99.90
6956;DHT22;50345;51.136;16.886;2023-12-20T15:17:44;7.30;99.90
6956;DHT22;50345;51.136;16.886;2023-12-20T15:20:10;7.30;99.90
6956;DHT22;50345;51.136;16.886;2023-12-20T15:22:36;7.30;99.90
6956;DHT22;50345;51.136;16.886;2023-12-20T15:25:03;7.30;99.90
6956;DHT22;50345;51.136;16.886;2023-12-20T15:27:30;7.30;99.90
6956;DHT22;50345;51.136;16.886;2023-12-20T15:29:56;7.20;99.90
6956;DHT22;50345;51.136;16.886;2023-12-20T15:32:22;7.20;99.90
6956;DHT22;50345;51.136;16.886;2023-12-20T15:34:48;7.10;99.90
6956;DHT22;50345;51.136;16.886;2023-12-20T15:37:14;7.00;99.90
6956;DHT22;50345;51.136;16.886;2023-12-20T15:39:41;6.90;99.90
6956;DHT22;50345;51.136;16.886;2023-12-20T15:42:06;6.90;99.90